map of LLY home
LLY - Airport
Location
City:  Mount Holly, New Jersey, United States
Name:South Jersey Regional
ICAO:KVAY
IATA:LLY
FAA LID:VAY

Details
Type:Airport (Airfield)
Use:Public/Civil
Latitude:3956'34"N (39.942889)
Longitude:7450'45"W (-74.845749)
Datum:WGS 1984
Elevation:52 ft (16 m)
Variation:12.18W (WMM2015v2 magnetic declination)
0.04 annual change
Runways:1
Longest:3881 × 50 ft (1183 × 15 m), paved

Time
Time Zone:UTC-5 (DST-4)
Local Time:

Weather
METAR:KVAY 041354Z AUTO 00000KT 4SM BR CLR 00/00 A3011 RMK AO2 SLP196 T00000000

Related Locations
Nearby:
Farthest:YAUG: 11765 mi / 18934 km
Augusta [Augusta Airport], WA, AU

Find:

   beyond  
but within

Other Information
Maps:
NOTAMs:
Links:
Sources:

  
  • flag of United States
  • flag of New Jersey
  

Sectional Chart

Flight Planning
at skyvector.com

Satellite Image

Google Maps Satellite view

 

Copyright © 2004-2019 Karl L. Swartz. All rights reserved.
The Great Circle Mapper name and logo are trademarks of the Great Circle Mapper.
All other trademarks mentioned herein belong to their respective owners.
Please see credits for attibutions and further copyright information.

  Follow gcmap on Facebook Follow gcmap on Twitter GCmap on LinkedIn

hCard Microformat

Geo Microformat